NCAR-RAP Real-Time Weather Data

Output produced by METARs form (19 June 2019  10:45 UTC)
found at http://weather.rap.ucar.edu/surface/
 
KDAY 191008Z 08003KT 1SM R06L/P6000FT BR SCT002 SCT039 OVC055 21/19 A2983 RMK AO2 SFC VIS 2 CIG 033 RWY 6L T02060194
KDAY 190956Z 00000KT 1SM R06L/P6000FT BR BKN002 OVC039 21/19 A2983 RMK AO2 SFC VIS 2 SLP093 T02060194
KDAY 190954Z 04003KT 1SM R06L/P6000FT BR BKN002 OVC039 21/19 A2983 RMK AO2 SFC VIS 2
KDAY 190945Z 06004KT 3SM BR FEW002 BKN039 OVC060 21/19 A2983 RMK AO2 T02060194
KDAY 190856Z 10003KT 5SM BR OVC070 21/19 A2983 RMK AO2 SLP093 T02110194 56012
KDAY 190756Z 00000KT 4SM BR OVC075 21/19 A2984 RMK AO2 SLP096 T02060194
KDAY 190656Z 06004KT 5SM BR SCT080 BKN190 21/19 A2985 RMK AO2 SLP100 T02060194
KDAY 190556Z 13004KT 10SM SCT075 BKN190 21/19 A2986 RMK AO2 SLP105 T02060189 10256 20206 58007
KDAY 190456Z 13003KT 10SM FEW075 BKN085 22/19 A2988 RMK AO2 SLP109 T02170194 402890189
KDAY 190356Z 00000KT 10SM FEW060 BKN080 22/19 A2988 RMK AO2 SLP113 T02170194
KDAY 190256Z 00000KT 10SM SCT060 BKN130 22/19 A2989 RMK AO2 SLP113 T02220194 51007
KDAY 190156Z 14003KT 10SM FEW038 BKN070 BKN130 22/20 A2988 RMK AO2 SLP110 T02220200
KDAY 190056Z 08005KT 10SM SCT120 23/20 A2988 RMK AO2 SLP111 T02330200
KDAY 182356Z 00000KT 10SM FEW050 SCT110 25/21 A2987 RMK AO2 RAE17 SLP106 P0000 60000 T02500206 10289 20228 58004
KDAY 182256Z 19003KT 4SM -RA SCT021 BKN035 OVC060 24/21 A2987 RMK AO2 LTG DSNT E RAB10 TSE17 SLP109 P0000 T02390206
KDAY 182223Z 19008KT 10SM -RA BKN021 OVC030 23/20 A2988 RMK AO2 RAB10 TSE17 TS MOV NE P0000 T02280200
KDAY 182156Z 33005KT 10SM TS SCT036 BKN050CB BKN060 26/19 A2988 RMK AO2 TSB46 SLP110 FRQ LTGIC S TS S MOV NE T02560194
KDAY 182152Z 32006KT 10SM TS SCT036 BKN050CB BKN060 26/19 A2988 RMK AO2 TSB46 FRQ LTGIC S TS S MOV NE
KDAY 182056Z 02004KT 10SM SCT034 BKN065 BKN090 26/19 A2988 RMK AO2 SLP112 T02610194 56018
KDAY 181956Z 00000KT 10SM SCT034TCU BKN065 27/19 A2990 RMK AO2 SLP118 MDT CU ALQDS TCU E S W-N T02720189
KDAY 181856Z 00000KT 7SM SCT027 BKN150 27/19 A2991 RMK AO2 SLP121 MDT CU ALQDS TCU DSNT SW-N-SE T02670189
KDAY 181756Z COR VRB03KT 7SM SCT022 BKN150 25/19 A2994 RMK AO2 SLP131 MDT CU OHD ALQDS TCU DSNT N-E SE-S W T02500189 10256 20200 58009
KDAY 181740Z 00000KT 10SM SCT022 BKN150 25/18 A2994 RMK AO2 MDT CU OHD ALQDS T02500183
KDAY 181656Z 00000KT 7SM BKN019 24/20 A2995 RMK AO2 SLP135 MDT CU DSNT NW-N-NE T02440200
KDAY 181627Z 00000KT 7SM OVC016 23/19 A2996 RMK AO2 T02330189
KDAY 181556Z 25004KT 7SM OVC012 22/19 A2997 RMK AO2 SLP141 T02220189
KDAY 181523Z 00000KT 7SM OVC010 23/19 A2996 RMK AO2 T02280189
KDAY 181456Z 00000KT 7SM OVC008 22/19 A2997 RMK AO2 SLP141 T02170189 50003
KDAY 181356Z 19003KT 3SM BR OVC006 21/18 A2998 RMK AO2 SFC VIS 6 SLP144 T02060183
KDAY 181311Z 00000KT 3SM BR BKN007 OVC038 21/18 A2998 RMK AO2 SFC VIS 6 T02060183
KDAY 181256Z 19003KT 3SM FEW005 BKN039 OVC160 21/18 A2998 RMK AO2 SFC VIS 7 SLP145 T02060183